createdAt,value
2019-03-31T00:00:44.011Z,0.00
2019-03-31T00:01:43.992Z,0.00
2019-03-31T00:02:43.954Z,0.00
2019-03-31T00:03:43.934Z,0.00
2019-03-31T00:04:43.922Z,0.00
2019-03-31T00:05:43.919Z,0.00
2019-03-31T00:06:43.887Z,0.00
2019-03-31T00:07:43.841Z,0.00
2019-03-31T00:08:43.835Z,0.00
2019-03-31T00:09:43.789Z,0.00
2019-03-31T00:10:43.773Z,0.00
2019-03-31T00:11:43.748Z,0.00
2019-03-31T00:12:43.725Z,0.00
2019-03-31T00:13:43.703Z,0.00
2019-03-31T00:14:43.693Z,0.00
2019-03-31T00:15:43.658Z,0.00
2019-03-31T00:16:43.651Z,0.00
2019-03-31T00:17:43.735Z,0.00
2019-03-31T00:18:43.607Z,0.00
2019-03-31T00:19:43.598Z,0.00
2019-03-31T00:20:43.540Z,0.00
2019-03-31T00:21:43.521Z,0.00
2019-03-31T00:22:43.537Z,0.00
2019-03-31T00:23:43.479Z,0.00
2019-03-31T00:24:43.447Z,0.00
2019-03-31T00:25:43.422Z,0.00
2019-03-31T00:26:43.467Z,0.00
2019-03-31T00:27:43.378Z,0.00
2019-03-31T00:28:43.361Z,0.00
2019-03-31T00:29:43.347Z,0.00
2019-03-31T00:30:43.311Z,0.00
2019-03-31T00:31:43.278Z,0.00
2019-03-31T00:32:43.275Z,0.00
2019-03-31T00:33:43.246Z,0.00
2019-03-31T00:34:43.243Z,0.00
2019-03-31T00:35:43.269Z,0.00
2019-03-31T00:36:43.186Z,0.00
2019-03-31T00:37:43.157Z,0.00
2019-03-31T00:38:43.118Z,0.00
2019-03-31T00:39:43.105Z,0.00
2019-03-31T00:40:43.095Z,0.00
2019-03-31T00:41:43.135Z,0.00
2019-03-31T00:42:43.058Z,0.00
2019-03-31T00:43:43.029Z,0.00
2019-03-31T00:44:42.980Z,0.00
2019-03-31T00:45:42.958Z,0.00
2019-03-31T00:46:42.928Z,0.00
2019-03-31T00:47:42.912Z,0.00
2019-03-31T00:48:42.887Z,0.00
2019-03-31T00:49:42.861Z,0.00
2019-03-31T00:50:42.844Z,0.00
2019-03-31T00:51:42.844Z,0.00
2019-03-31T00:52:42.798Z,0.00
2019-03-31T00:53:42.767Z,0.00
2019-03-31T00:54:42.751Z,0.00
2019-03-31T00:55:42.725Z,0.00
2019-03-31T00:56:42.705Z,0.00
2019-03-31T00:57:42.677Z,0.00
2019-03-31T00:58:42.698Z,0.00
2019-03-31T00:59:42.626Z,0.00
2019-03-31T01:00:42.603Z,0.00
2019-03-31T01:01:42.582Z,0.00
2019-03-31T01:02:42.557Z,0.00
2019-03-31T01:03:42.563Z,0.00
2019-03-31T01:04:42.514Z,0.00
2019-03-31T01:05:42.486Z,0.00
2019-03-31T01:06:42.461Z,0.00
2019-03-31T01:07:42.438Z,0.00
2019-03-31T01:08:42.428Z,0.00
2019-03-31T01:09:42.430Z,0.00
2019-03-31T01:10:42.407Z,0.00
2019-03-31T01:11:42.349Z,0.00
2019-03-31T01:12:42.328Z,0.00
2019-03-31T01:13:42.321Z,0.00
2019-03-31T01:14:42.280Z,0.00
2019-03-31T01:15:42.254Z,0.00
2019-03-31T01:16:42.242Z,0.00
2019-03-31T01:17:42.208Z,0.00
2019-03-31T01:18:42.185Z,0.00
2019-03-31T01:19:42.160Z,0.00
2019-03-31T01:20:42.163Z,0.00
2019-03-31T01:21:42.109Z,0.00
2019-03-31T01:22:42.087Z,0.00
2019-03-31T01:23:42.063Z,0.00
2019-03-31T01:24:42.041Z,0.00
2019-03-31T01:25:42.025Z,0.00
2019-03-31T01:26:41.987Z,0.00
2019-03-31T01:27:41.985Z,0.00
2019-03-31T01:28:41.942Z,0.00
2019-03-31T01:29:41.927Z,0.00
2019-03-31T01:30:41.901Z,0.00
2019-03-31T01:31:50.056Z,0.00
2019-03-31T01:32:41.900Z,0.00
2019-03-31T01:33:41.830Z,0.00
2019-03-31T01:34:41.823Z,0.00
2019-03-31T01:35:41.776Z,0.00
2019-03-31T01:36:41.795Z,0.00
2019-03-31T01:37:41.734Z,0.00
2019-03-31T01:38:41.709Z,0.00
2019-03-31T01:39:41.693Z,0.00
2019-03-31T01:40:41.683Z,0.00
2019-03-31T01:41:41.654Z,0.00
2019-03-31T01:42:41.618Z,0.00
2019-03-31T01:43:41.596Z,0.00
2019-03-31T01:44:41.581Z,0.00
2019-03-31T01:45:41.544Z,0.00
2019-03-31T01:46:41.555Z,0.00
2019-03-31T01:47:41.541Z,0.00
2019-03-31T01:48:41.472Z,0.00
2019-03-31T01:49:41.455Z,0.00
2019-03-31T01:50:41.487Z,0.00
2019-03-31T01:51:41.405Z,0.00
2019-03-31T01:52:41.377Z,0.00
2019-03-31T01:53:41.373Z,0.00
2019-03-31T01:54:41.332Z,0.00
2019-03-31T01:55:41.374Z,0.00
2019-03-31T01:56:44.583Z,0.00
2019-03-31T01:57:41.268Z,0.00
2019-03-31T01:58:41.255Z,0.00
2019-03-31T01:59:41.234Z,0.00
2019-03-31T02:00:41.202Z,0.00
2019-03-31T02:01:41.188Z,0.00
2019-03-31T02:02:41.144Z,0.00
2019-03-31T02:03:41.118Z,0.00
2019-03-31T02:04:41.118Z,0.00
2019-03-31T02:05:41.073Z,0.00
2019-03-31T02:06:41.051Z,0.00
2019-03-31T02:07:41.044Z,0.00
2019-03-31T02:08:41.016Z,0.00
2019-03-31T02:09:41.029Z,0.00
2019-03-31T02:10:40.949Z,0.00
2019-03-31T02:11:40.953Z,0.00
2019-03-31T02:12:40.904Z,0.00
2019-03-31T02:13:40.904Z,0.00
2019-03-31T02:14:40.865Z,0.00
2019-03-31T02:15:40.836Z,0.00
2019-03-31T02:16:40.836Z,0.00
2019-03-31T02:17:40.799Z,0.00
2019-03-31T02:18:40.763Z,0.00
2019-03-31T02:19:40.738Z,0.00
2019-03-31T02:20:40.718Z,0.00
2019-03-31T02:21:40.696Z,0.00
2019-03-31T02:22:40.668Z,0.00
2019-03-31T02:23:40.642Z,0.00
2019-03-31T02:24:40.624Z,0.00
2019-03-31T02:25:40.615Z,0.00
2019-03-31T02:26:40.576Z,0.00
2019-03-31T02:27:40.563Z,0.00
2019-03-31T02:28:40.528Z,0.00
2019-03-31T02:29:40.518Z,0.00
2019-03-31T02:30:40.482Z,0.00
2019-03-31T02:31:40.468Z,0.00
2019-03-31T02:32:40.435Z,0.00
2019-03-31T02:33:40.418Z,0.00
2019-03-31T02:34:40.384Z,0.00
2019-03-31T02:35:40.393Z,0.00
2019-03-31T02:36:40.344Z,0.00
2019-03-31T02:37:40.312Z,0.00
2019-03-31T02:38:40.295Z,0.00
2019-03-31T02:39:40.284Z,0.00
2019-03-31T02:40:40.251Z,0.00
2019-03-31T02:41:40.222Z,0.00
2019-03-31T02:42:40.214Z,0.00
2019-03-31T02:43:40.206Z,0.00
2019-03-31T02:44:40.147Z,0.00
2019-03-31T02:45:40.129Z,0.00
2019-03-31T02:46:40.115Z,0.00
2019-03-31T02:47:40.110Z,0.00
2019-03-31T02:48:40.060Z,0.00
2019-03-31T02:49:40.031Z,0.00
2019-03-31T02:50:40.017Z,0.00
2019-03-31T02:51:39.995Z,0.00
2019-03-31T02:52:39.992Z,0.00
2019-03-31T02:53:39.963Z,0.00
2019-03-31T02:54:39.916Z,0.00
2019-03-31T02:55:39.892Z,0.00
2019-03-31T02:56:39.870Z,0.00
2019-03-31T02:57:39.916Z,0.00
2019-03-31T02:58:39.829Z,0.00
2019-03-31T02:59:39.804Z,0.00
2019-03-31T03:00:39.816Z,0.00
2019-03-31T03:01:39.751Z,0.00
2019-03-31T03:02:42.609Z,0.00
2019-03-31T03:03:39.728Z,0.00
2019-03-31T03:04:39.705Z,0.00
2019-03-31T03:05:39.685Z,0.00
2019-03-31T03:06:39.630Z,0.00
2019-03-31T03:07:39.622Z,0.00
2019-03-31T03:08:39.586Z,0.00
2019-03-31T03:09:39.559Z,0.00
2019-03-31T03:10:39.590Z,0.00
2019-03-31T03:11:39.514Z,0.00
2019-03-31T03:12:39.524Z,0.00
2019-03-31T03:13:39.482Z,0.00
2019-03-31T03:14:39.457Z,0.00
2019-03-31T03:15:39.422Z,0.00
2019-03-31T03:16:39.393Z,0.00
2019-03-31T03:17:39.373Z,0.00
2019-03-31T03:18:39.352Z,0.00
2019-03-31T03:19:39.367Z,0.00
2019-03-31T03:20:39.360Z,0.00
2019-03-31T03:21:39.282Z,0.00
2019-03-31T03:22:39.258Z,0.00
2019-03-31T03:23:39.239Z,0.00
2019-03-31T03:24:39.217Z,0.00
2019-03-31T03:25:55.210Z,0.00
2019-03-31T03:26:39.177Z,0.00
2019-03-31T03:27:39.168Z,0.00
2019-03-31T03:28:39.111Z,0.00
2019-03-31T03:29:39.093Z,0.00
2019-03-31T03:30:39.164Z,0.00
2019-03-31T03:31:39.038Z,0.00
2019-03-31T03:32:39.017Z,0.00
2019-03-31T03:33:38.989Z,0.00
2019-03-31T03:34:39.030Z,0.00
2019-03-31T03:35:38.940Z,0.00
2019-03-31T03:36:42.942Z,0.00
2019-03-31T03:37:38.929Z,0.00
2019-03-31T03:38:38.889Z,0.00
2019-03-31T03:39:38.856Z,0.00
2019-03-31T03:40:38.828Z,0.00
2019-03-31T03:41:38.803Z,0.00
2019-03-31T03:42:38.796Z,0.00
2019-03-31T03:43:54.094Z,0.00
2019-03-31T03:44:38.723Z,0.00
2019-03-31T03:45:38.708Z,0.00
2019-03-31T03:46:38.720Z,0.00
2019-03-31T03:47:38.707Z,0.00
2019-03-31T03:48:38.651Z,0.00
2019-03-31T03:49:38.621Z,0.00
2019-03-31T03:50:38.583Z,0.00
2019-03-31T03:51:38.575Z,0.00
2019-03-31T03:52:38.537Z,0.00
2019-03-31T03:53:38.525Z,0.00
2019-03-31T03:54:38.513Z,0.00
2019-03-31T03:55:38.477Z,0.00
2019-03-31T03:56:38.447Z,0.00
2019-03-31T03:57:38.518Z,0.00
2019-03-31T03:58:38.400Z,0.00
2019-03-31T03:59:38.379Z,0.00
2019-03-31T04:00:38.372Z,0.00
2019-03-31T04:01:38.317Z,0.00
2019-03-31T04:02:38.313Z,0.00
2019-03-31T04:03:38.280Z,0.00
2019-03-31T04:04:38.265Z,0.00
2019-03-31T04:05:38.240Z,0.00
2019-03-31T04:06:38.342Z,0.00
2019-03-31T04:07:38.217Z,0.00
2019-03-31T04:08:38.175Z,0.00
2019-03-31T04:09:38.169Z,0.00
2019-03-31T04:10:38.110Z,0.00
2019-03-31T04:11:38.149Z,0.00
2019-03-31T04:12:38.081Z,0.00
2019-03-31T04:13:38.040Z,0.00
2019-03-31T04:14:38.014Z,0.00
2019-03-31T04:15:37.998Z,0.00
2019-03-31T04:16:37.990Z,0.00
2019-03-31T04:17:37.965Z,0.00
2019-03-31T04:18:37.916Z,0.00
2019-03-31T04:19:37.903Z,0.00
2019-03-31T04:20:39.576Z,0.00
2019-03-31T04:21:37.856Z,0.00
2019-03-31T04:22:37.818Z,0.00
2019-03-31T04:23:37.812Z,0.00
2019-03-31T04:24:37.781Z,0.00
2019-03-31T04:25:37.793Z,0.00
2019-03-31T04:26:37.735Z,0.00
2019-03-31T04:27:37.725Z,0.00
2019-03-31T04:28:37.693Z,0.00
2019-03-31T04:29:37.664Z,0.00
2019-03-31T04:30:37.629Z,0.00
2019-03-31T04:31:37.638Z,0.00
2019-03-31T04:32:38.912Z,0.00
2019-03-31T04:33:50.523Z,4.00
2019-03-31T04:34:37.551Z,0.00
2019-03-31T04:35:37.510Z,0.00
2019-03-31T04:36:37.495Z,4.00
2019-03-31T04:37:37.472Z,4.00
2019-03-31T04:38:37.489Z,4.00
2019-03-31T04:39:37.413Z,4.00
2019-03-31T04:40:37.405Z,4.00
2019-03-31T04:41:37.381Z,8.00
2019-03-31T04:42:37.362Z,8.00
2019-03-31T04:43:37.327Z,12.00
2019-03-31T04:44:37.295Z,16.00
2019-03-31T04:45:37.301Z,16.00
2019-03-31T04:46:37.261Z,20.00
2019-03-31T04:47:37.241Z,24.00
2019-03-31T04:48:37.218Z,28.00
2019-03-31T04:49:37.186Z,32.00
2019-03-31T04:50:37.193Z,40.00
2019-03-31T04:51:37.132Z,48.00
2019-03-31T04:52:37.115Z,56.00
2019-03-31T04:53:37.090Z,64.00
2019-03-31T04:54:37.060Z,72.00
2019-03-31T04:55:37.040Z,84.00
2019-03-31T04:56:37.012Z,96.00
2019-03-31T04:57:37.003Z,108.00
2019-03-31T04:58:36.967Z,124.00
2019-03-31T04:59:36.951Z,144.00
2019-03-31T05:00:36.910Z,160.00
2019-03-31T05:01:36.910Z,180.00
2019-03-31T05:02:36.862Z,196.00
2019-03-31T05:03:36.855Z,220.00
2019-03-31T05:04:36.814Z,240.00
2019-03-31T05:05:36.797Z,268.00
2019-03-31T05:06:36.791Z,296.00
2019-03-31T05:07:36.807Z,320.00
2019-03-31T05:08:36.813Z,348.00
2019-03-31T05:09:36.695Z,380.00
2019-03-31T05:10:36.685Z,412.00
2019-03-31T05:11:36.691Z,444.00
2019-03-31T05:12:36.698Z,476.00
2019-03-31T05:13:36.604Z,516.00
2019-03-31T05:14:36.588Z,548.00
2019-03-31T05:15:36.549Z,588.00
2019-03-31T05:16:36.534Z,624.00
2019-03-31T05:17:36.561Z,660.00
2019-03-31T05:18:36.482Z,704.00
2019-03-31T05:19:36.466Z,740.00
2019-03-31T05:20:36.435Z,784.00
2019-03-31T05:21:36.419Z,828.00
2019-03-31T05:22:36.387Z,868.00
2019-03-31T05:23:36.374Z,912.00
2019-03-31T05:24:36.346Z,960.00
2019-03-31T05:25:36.345Z,1008.00
2019-03-31T05:26:36.319Z,1052.00
2019-03-31T05:27:36.269Z,1096.00
2019-03-31T05:28:36.243Z,1144.00
2019-03-31T05:29:36.246Z,1192.00
2019-03-31T05:30:36.205Z,1236.00
2019-03-31T05:31:36.175Z,1288.00
2019-03-31T05:32:36.147Z,1336.00
2019-03-31T05:33:36.125Z,1384.00
2019-03-31T05:34:36.144Z,1436.00
2019-03-31T05:35:36.077Z,1488.00
2019-03-31T05:36:36.045Z,1536.00
2019-03-31T05:37:49.878Z,1588.00
2019-03-31T05:38:36.038Z,1640.00
2019-03-31T05:39:36.069Z,1692.00
2019-03-31T05:40:35.968Z,1740.00
2019-03-31T05:41:35.930Z,1796.00
2019-03-31T05:42:35.908Z,1848.00
2019-03-31T05:43:35.882Z,1896.00
2019-03-31T05:44:35.856Z,1948.00
2019-03-31T05:45:35.860Z,2004.00
2019-03-31T05:46:35.816Z,2056.00
2019-03-31T05:47:35.804Z,2108.00
2019-03-31T05:48:35.797Z,2160.00
2019-03-31T05:49:35.762Z,2216.00
2019-03-31T05:50:35.717Z,2264.00
2019-03-31T05:51:35.736Z,2320.00
2019-03-31T05:52:35.669Z,2372.00
2019-03-31T05:53:35.663Z,2420.00
2019-03-31T05:54:35.650Z,2472.00
2019-03-31T05:55:35.606Z,2520.00
2019-03-31T05:56:35.570Z,2568.00
2019-03-31T05:57:35.552Z,2620.00
2019-03-31T05:58:35.535Z,2664.00
2019-03-31T05:59:35.522Z,2712.00
2019-03-31T06:00:35.510Z,2760.00
2019-03-31T06:01:35.495Z,2808.00
2019-03-31T06:02:35.459Z,2860.00
2019-03-31T06:03:35.406Z,2904.00
2019-03-31T06:04:35.421Z,2952.00
2019-03-31T06:05:35.371Z,3000.00
2019-03-31T06:06:37.024Z,3044.00
2019-03-31T06:07:35.317Z,3080.00
2019-03-31T06:08:35.288Z,3120.00
2019-03-31T06:09:35.271Z,3156.00
2019-03-31T06:10:35.249Z,3196.00
2019-03-31T06:11:35.216Z,3236.00
2019-03-31T06:12:35.217Z,3276.00
2019-03-31T06:13:35.178Z,3320.00
2019-03-31T06:14:35.148Z,3356.00
2019-03-31T06:15:35.130Z,3396.00
2019-03-31T06:16:35.094Z,3432.00
2019-03-31T06:17:35.088Z,3468.00
2019-03-31T06:18:35.088Z,3512.00
2019-03-31T06:19:35.051Z,3548.00
2019-03-31T06:20:35.017Z,3588.00
2019-03-31T06:21:34.978Z,3620.00
2019-03-31T06:22:34.986Z,3708.00
2019-03-31T06:23:34.936Z,3892.00
2019-03-31T06:24:34.916Z,6676.00
2019-03-31T06:25:34.886Z,9268.00
2019-03-31T06:26:34.869Z,7456.00
2019-03-31T06:27:34.844Z,5424.00
2019-03-31T06:28:34.832Z,4896.00
2019-03-31T06:29:34.792Z,4668.00
2019-03-31T06:30:34.776Z,4684.00
2019-03-31T06:31:34.750Z,4792.00
2019-03-31T06:32:34.722Z,4808.00
2019-03-31T06:33:34.706Z,4788.00
2019-03-31T06:34:46.898Z,4800.00
2019-03-31T06:35:34.686Z,4808.00
2019-03-31T06:36:34.635Z,4828.00
2019-03-31T06:37:34.613Z,4844.00
2019-03-31T06:38:34.593Z,4864.00
2019-03-31T06:39:34.580Z,4880.00
2019-03-31T06:40:34.556Z,4900.00
2019-03-31T06:41:34.522Z,4920.00
2019-03-31T06:42:34.514Z,4924.00
2019-03-31T06:43:34.487Z,4928.00
2019-03-31T06:44:37.881Z,4972.00
2019-03-31T06:45:34.440Z,5040.00
2019-03-31T06:46:34.416Z,5120.00
2019-03-31T06:47:34.391Z,5132.00
2019-03-31T06:48:34.388Z,4992.00
2019-03-31T06:49:34.343Z,4888.00
2019-03-31T06:50:34.334Z,4932.00
2019-03-31T06:51:34.305Z,4940.00
2019-03-31T06:52:34.286Z,4920.00
2019-03-31T06:53:34.258Z,5044.00
2019-03-31T06:54:34.248Z,5140.00
2019-03-31T06:55:34.217Z,5244.00
2019-03-31T06:56:34.204Z,5252.00
2019-03-31T06:57:34.189Z,5168.00
2019-03-31T06:58:34.161Z,5196.00
2019-03-31T06:59:34.190Z,5316.00
2019-03-31T07:00:34.115Z,5284.00
2019-03-31T07:01:34.105Z,5164.00
2019-03-31T07:02:34.079Z,5168.00
2019-03-31T07:03:34.074Z,5200.00
2019-03-31T07:04:34.038Z,5268.00
2019-03-31T07:05:34.016Z,5236.00
2019-03-31T07:06:33.990Z,5108.00
2019-03-31T07:07:33.974Z,5080.00
2019-03-31T07:08:33.969Z,5076.00
2019-03-31T07:09:33.946Z,5104.00
2019-03-31T07:10:33.911Z,5200.00
2019-03-31T07:11:33.901Z,5392.00
2019-03-31T07:12:33.889Z,5440.00
2019-03-31T07:13:33.860Z,5384.00
2019-03-31T07:14:33.835Z,5456.00
2019-03-31T07:15:33.818Z,5504.00
2019-03-31T07:16:33.796Z,5492.00
2019-03-31T07:17:33.786Z,5468.00
2019-03-31T07:18:33.775Z,5448.00
2019-03-31T07:19:33.738Z,5492.00
2019-03-31T07:20:33.725Z,5584.00
2019-03-31T07:21:33.722Z,5620.00
2019-03-31T07:22:33.685Z,5844.00
2019-03-31T07:23:33.669Z,6116.00
2019-03-31T07:24:33.656Z,5984.00
2019-03-31T07:25:36.955Z,6016.00
2019-03-31T07:26:33.610Z,6052.00
2019-03-31T07:27:33.607Z,6024.00
2019-03-31T07:28:33.588Z,6068.00
2019-03-31T07:29:33.552Z,6084.00
2019-03-31T07:30:33.534Z,6132.00
2019-03-31T07:31:33.520Z,6276.00
2019-03-31T07:32:33.508Z,6344.00
2019-03-31T07:33:33.489Z,6336.00
2019-03-31T07:34:33.476Z,6404.00
2019-03-31T07:35:33.473Z,6504.00
2019-03-31T07:36:33.430Z,6552.00
2019-03-31T07:37:46.325Z,6564.00
2019-03-31T07:38:39.182Z,6604.00
2019-03-31T07:39:33.378Z,6664.00
2019-03-31T07:40:33.513Z,6632.00
2019-03-31T07:41:33.419Z,6564.00
2019-03-31T07:42:33.333Z,6596.00
2019-03-31T07:43:33.316Z,6648.00
2019-03-31T07:44:33.298Z,6708.00
2019-03-31T07:45:33.282Z,6788.00
2019-03-31T07:46:33.266Z,6828.00
2019-03-31T07:47:33.258Z,6864.00
2019-03-31T07:48:33.241Z,6916.00
2019-03-31T07:49:33.247Z,7032.00
2019-03-31T07:50:33.213Z,7176.00
2019-03-31T07:51:33.193Z,7456.00
2019-03-31T07:52:33.184Z,7788.00
2019-03-31T07:53:33.165Z,7984.00
2019-03-31T07:54:33.152Z,7884.00
2019-03-31T07:55:33.144Z,7780.00
2019-03-31T07:56:33.126Z,7780.00
2019-03-31T07:57:33.133Z,7836.00
2019-03-31T07:58:33.110Z,7872.00
2019-03-31T07:59:33.082Z,7940.00
2019-03-31T08:00:33.066Z,7996.00
2019-03-31T08:01:33.055Z,8012.00
2019-03-31T08:02:33.110Z,8028.00
2019-03-31T08:03:33.025Z,8064.00
2019-03-31T08:04:33.013Z,8148.00
2019-03-31T08:05:36.150Z,8304.00
2019-03-31T08:06:32.989Z,8488.00
2019-03-31T08:07:32.969Z,8540.00
2019-03-31T08:08:32.959Z,8552.00
2019-03-31T08:09:32.943Z,8660.00
2019-03-31T08:10:32.931Z,8804.00
2019-03-31T08:11:32.922Z,9032.00
2019-03-31T08:12:32.908Z,9284.00
2019-03-31T08:13:32.888Z,9448.00
2019-03-31T08:14:32.933Z,9588.00
2019-03-31T08:15:32.866Z,9696.00
2019-03-31T08:16:32.850Z,9848.00
2019-03-31T08:17:32.834Z,10020.00
2019-03-31T08:18:32.830Z,10076.00
2019-03-31T08:19:32.809Z,10080.00
2019-03-31T08:20:32.798Z,10108.00
2019-03-31T08:21:32.817Z,10224.00
2019-03-31T08:22:32.772Z,10384.00
2019-03-31T08:23:32.755Z,10612.00
2019-03-31T08:24:32.777Z,10800.00
2019-03-31T08:25:32.736Z,11008.00
2019-03-31T08:26:32.717Z,11244.00
2019-03-31T08:27:32.706Z,11432.00
2019-03-31T08:28:32.760Z,11628.00
2019-03-31T08:29:32.678Z,11808.00
2019-03-31T08:30:32.669Z,11984.00
2019-03-31T08:31:32.656Z,12308.00
2019-03-31T08:32:32.644Z,12688.00
2019-03-31T08:33:32.649Z,12944.00
2019-03-31T08:34:32.627Z,13072.00
2019-03-31T08:35:46.301Z,13116.00
2019-03-31T08:36:35.162Z,13132.00
2019-03-31T08:37:32.586Z,13140.00
2019-03-31T08:38:32.575Z,13192.00
2019-03-31T08:39:32.564Z,13332.00
2019-03-31T08:40:32.550Z,13556.00
2019-03-31T08:41:32.534Z,13764.00
2019-03-31T08:42:32.521Z,14172.00
2019-03-31T08:43:32.523Z,14588.00
2019-03-31T08:44:32.495Z,14832.00
2019-03-31T08:45:32.483Z,14948.00
2019-03-31T08:46:32.470Z,15168.00
2019-03-31T08:47:32.459Z,15568.00
2019-03-31T08:48:32.453Z,16052.00
2019-03-31T08:49:32.431Z,16488.00
2019-03-31T08:50:34.809Z,16952.00
2019-03-31T08:51:32.412Z,17464.00
2019-03-31T08:52:32.399Z,18368.00
2019-03-31T08:53:32.393Z,19584.00
2019-03-31T08:54:32.376Z,21184.00
2019-03-31T08:55:32.360Z,31360.00
2019-03-31T08:56:32.345Z,55040.00
2019-03-31T08:57:32.329Z,61504.00
2019-03-31T08:58:32.348Z,61056.00
2019-03-31T08:59:32.315Z,58912.00
2019-03-31T09:00:32.300Z,61760.00
2019-03-31T09:01:32.284Z,65728.00
2019-03-31T09:02:32.277Z,66944.00
2019-03-31T09:03:32.258Z,65280.00
2019-03-31T09:04:32.246Z,66976.00
2019-03-31T09:05:32.259Z,68992.00
2019-03-31T09:06:32.230Z,68864.00
2019-03-31T09:07:32.216Z,69216.00
2019-03-31T09:08:32.201Z,67968.00
2019-03-31T09:09:32.188Z,66496.00
2019-03-31T09:10:32.181Z,66048.00
2019-03-31T09:11:32.165Z,66720.00
2019-03-31T09:12:32.158Z,67328.00
2019-03-31T09:13:32.143Z,65344.00
2019-03-31T09:14:32.130Z,66144.00
2019-03-31T09:15:32.124Z,68416.00
2019-03-31T09:16:32.111Z,66528.00
2019-03-31T09:17:32.098Z,66432.00
2019-03-31T09:18:32.082Z,68672.00
2019-03-31T09:19:32.070Z,71264.00
2019-03-31T09:20:32.060Z,72288.00
2019-03-31T09:21:32.047Z,72960.00
2019-03-31T09:22:32.038Z,74560.00
2019-03-31T09:23:32.022Z,74848.00
2019-03-31T09:24:32.012Z,76608.00
2019-03-31T09:25:31.999Z,78048.00
2019-03-31T09:26:31.992Z,76224.00
2019-03-31T09:27:31.976Z,74048.00
2019-03-31T09:28:31.970Z,71872.00
2019-03-31T09:29:31.957Z,70272.00
2019-03-31T09:30:31.938Z,72800.00
2019-03-31T09:31:31.935Z,75872.00
2019-03-31T09:32:31.915Z,77696.00
2019-03-31T09:33:31.903Z,79008.00
2019-03-31T09:34:31.893Z,79072.00
2019-03-31T09:35:31.883Z,75872.00
2019-03-31T09:36:31.874Z,72000.00
2019-03-31T09:37:31.874Z,71904.00
2019-03-31T09:38:31.852Z,74944.00
2019-03-31T09:39:31.839Z,74752.00
2019-03-31T09:40:31.826Z,76288.00
2019-03-31T09:41:31.821Z,75328.00
2019-03-31T09:42:31.805Z,70432.00
2019-03-31T09:43:31.793Z,64928.00
2019-03-31T09:44:31.780Z,63616.00
2019-03-31T09:45:31.767Z,64512.00
2019-03-31T09:46:31.764Z,65184.00
2019-03-31T09:47:31.807Z,68416.00
2019-03-31T09:48:31.741Z,69216.00
2019-03-31T09:49:31.738Z,68448.00
2019-03-31T09:50:31.714Z,70176.00
2019-03-31T09:51:31.709Z,74144.00
2019-03-31T09:52:31.692Z,73312.00
2019-03-31T09:53:31.685Z,70848.00
2019-03-31T09:54:31.674Z,74208.00
2019-03-31T09:55:31.655Z,79936.00
2019-03-31T09:56:31.645Z,80992.00
2019-03-31T09:57:31.645Z,79136.00
2019-03-31T09:58:31.623Z,78368.00
2019-03-31T09:59:31.615Z,79744.00
2019-03-31T10:00:31.611Z,79936.00
2019-03-31T10:01:31.598Z,79840.00
2019-03-31T10:02:31.582Z,76416.00
2019-03-31T10:03:31.592Z,73344.00
2019-03-31T10:04:31.566Z,73472.00
2019-03-31T10:05:31.556Z,74432.00
2019-03-31T10:06:31.553Z,76928.00
2019-03-31T10:07:31.544Z,79424.00
2019-03-31T10:08:31.518Z,79680.00
2019-03-31T10:09:31.508Z,78848.00
2019-03-31T10:10:31.499Z,80256.00
2019-03-31T10:11:31.489Z,80320.00
2019-03-31T10:12:31.479Z,81024.00
2019-03-31T10:13:31.473Z,83552.00
2019-03-31T10:14:31.461Z,85824.00
2019-03-31T10:15:31.448Z,86336.00
2019-03-31T10:16:31.438Z,79776.00
2019-03-31T10:17:31.448Z,67968.00
2019-03-31T10:18:31.419Z,62816.00
2019-03-31T10:19:31.413Z,68320.00
2019-03-31T10:20:31.886Z,74496.00
2019-03-31T10:21:31.390Z,75584.00
2019-03-31T10:22:31.384Z,75392.00
2019-03-31T10:23:31.375Z,76544.00
2019-03-31T10:24:31.365Z,76064.00
2019-03-31T10:25:31.356Z,74880.00
2019-03-31T10:26:32.454Z,75904.00
2019-03-31T10:27:31.342Z,75648.00
2019-03-31T10:28:31.333Z,74976.00
2019-03-31T10:29:31.323Z,77440.00
2019-03-31T10:30:31.322Z,76768.00
2019-03-31T10:31:31.301Z,72608.00
2019-03-31T10:32:31.312Z,73728.00
2019-03-31T10:33:31.293Z,77696.00
2019-03-31T10:34:31.285Z,77600.00
2019-03-31T10:35:31.285Z,74848.00
2019-03-31T10:36:43.915Z,75680.00
2019-03-31T10:37:31.269Z,80768.00
2019-03-31T10:38:31.259Z,83552.00
2019-03-31T10:39:31.255Z,83456.00
2019-03-31T10:40:31.250Z,84640.00
2019-03-31T10:41:31.310Z,89472.00
2019-03-31T10:42:31.233Z,89184.00
2019-03-31T10:43:31.228Z,85536.00
2019-03-31T10:44:31.231Z,81440.00
2019-03-31T10:45:31.206Z,77664.00
2019-03-31T10:46:31.202Z,76416.00
2019-03-31T10:47:31.793Z,79296.00
2019-03-31T10:48:31.192Z,83424.00
2019-03-31T10:49:31.186Z,88128.00
2019-03-31T10:50:31.179Z,91680.00
2019-03-31T10:51:31.176Z,93408.00
2019-03-31T10:52:31.164Z,90720.00
2019-03-31T10:53:31.163Z,85728.00
2019-03-31T10:54:31.147Z,81824.00
2019-03-31T10:55:31.144Z,79008.00
2019-03-31T10:56:31.138Z,78016.00
2019-03-31T10:57:31.152Z,79904.00
2019-03-31T10:58:31.125Z,84224.00
2019-03-31T10:59:31.126Z,89696.00
2019-03-31T11:00:31.123Z,93760.00
2019-03-31T11:01:31.109Z,93888.00
2019-03-31T11:02:31.103Z,92448.00
2019-03-31T11:03:33.036Z,92000.00
2019-03-31T11:04:31.103Z,92992.00
2019-03-31T11:05:31.083Z,96064.00
2019-03-31T11:06:31.090Z,96032.00
2019-03-31T11:07:31.077Z,94880.00
2019-03-31T11:08:31.074Z,92768.00
2019-03-31T11:09:34.226Z,91904.00
2019-03-31T11:10:31.058Z,91392.00
2019-03-31T11:11:31.058Z,94944.00
2019-03-31T11:12:31.064Z,95616.00
2019-03-31T11:13:31.058Z,92000.00
2019-03-31T11:14:31.059Z,93984.00
2019-03-31T11:15:31.039Z,97792.00
2019-03-31T11:16:31.031Z,97376.00
2019-03-31T11:17:31.031Z,95488.00
2019-03-31T11:18:31.022Z,92384.00
2019-03-31T11:19:31.031Z,92864.00
2019-03-31T11:20:31.024Z,98144.00
2019-03-31T11:21:31.015Z,100800.00
2019-03-31T11:22:31.005Z,95200.00
2019-03-31T11:23:31.005Z,90688.00
2019-03-31T11:24:31.014Z,88448.00
2019-03-31T11:25:30.996Z,88416.00
2019-03-31T11:26:30.986Z,87104.00
2019-03-31T11:27:30.991Z,86528.00
2019-03-31T11:28:30.986Z,88192.00
2019-03-31T11:29:30.982Z,90496.00
2019-03-31T11:30:30.975Z,93056.00
2019-03-31T11:31:30.983Z,97600.00
2019-03-31T11:32:30.974Z,105760.00
2019-03-31T11:33:30.976Z,109152.00
2019-03-31T11:34:30.967Z,105504.00
2019-03-31T11:35:30.957Z,92096.00
2019-03-31T11:36:30.959Z,73984.00
2019-03-31T11:37:30.951Z,55840.00
2019-03-31T11:38:30.951Z,42816.00
2019-03-31T11:39:30.941Z,37408.00
2019-03-31T11:40:30.941Z,35520.00
2019-03-31T11:41:30.960Z,33376.00
2019-03-31T11:42:30.947Z,31552.00
2019-03-31T11:43:30.929Z,31616.00
2019-03-31T11:44:30.932Z,32256.00
2019-03-31T11:45:30.928Z,32544.00
2019-03-31T11:46:30.928Z,32384.00
2019-03-31T11:47:30.924Z,32128.00
2019-03-31T11:48:30.948Z,31104.00
2019-03-31T11:49:30.918Z,30464.00
2019-03-31T11:50:30.926Z,29856.00
2019-03-31T11:51:30.917Z,29664.00
2019-03-31T11:52:30.912Z,29600.00
2019-03-31T11:53:30.906Z,29536.00
2019-03-31T11:54:30.906Z,28928.00
2019-03-31T11:55:30.902Z,28512.00
2019-03-31T11:56:30.899Z,28320.00
2019-03-31T11:57:30.902Z,27904.00
2019-03-31T11:58:32.433Z,27872.00
2019-03-31T11:59:30.896Z,27552.00
2019-03-31T12:00:30.958Z,27552.00
2019-03-31T12:01:30.888Z,27328.00
2019-03-31T12:02:30.894Z,27392.00
2019-03-31T12:03:31.404Z,27200.00
2019-03-31T12:04:30.885Z,26592.00
2019-03-31T12:05:30.880Z,26592.00
2019-03-31T12:06:30.888Z,26528.00
2019-03-31T12:07:30.875Z,26688.00
2019-03-31T12:08:30.877Z,26272.00
2019-03-31T12:09:30.870Z,26016.00
2019-03-31T12:10:30.882Z,25824.00
2019-03-31T12:11:30.874Z,25408.00
2019-03-31T12:12:30.864Z,25824.00
2019-03-31T12:13:30.857Z,25760.00
2019-03-31T12:14:30.861Z,25760.00
2019-03-31T12:15:30.852Z,25600.00
2019-03-31T12:16:30.858Z,24928.00
2019-03-31T12:17:30.854Z,24192.00
2019-03-31T12:18:30.846Z,23712.00
2019-03-31T12:19:30.850Z,23360.00
2019-03-31T12:20:30.853Z,23584.00
2019-03-31T12:21:30.850Z,23008.00
2019-03-31T12:22:30.847Z,23200.00
2019-03-31T12:23:30.842Z,23168.00
2019-03-31T12:24:30.835Z,23424.00
2019-03-31T12:25:30.833Z,23360.00